Time;durP1;ratioP1;P1;durP2;ratioP2;P2;SDS_P1;SDS_P2;PMS_P1;PMS_P2;Temp;Humidity;BMP_temperature;BMP_pressure;BME280_temperature;BME280_humidity;BME280_pressure;Samples;Min_cycle;Max_cycle;Signal;HPM_P1;HPM_P2
2023/01/17 00:00:05;;;;;;;11.73;2.30;;;27.90;99.90;;;;;;4974976;28;20183;-68
2023/01/17 00:02:33;;;;;;;22.33;2.77;;;27.60;99.90;;;;;;4975422;28;20191;-67
2023/01/17 00:10:40;;;;;;;10.37;1.70;;;27.10;99.90;;;;;;4951773;28;20203;-68
2023/01/17 00:13:07;;;;;;;8.47;1.73;;;27.10;99.90;;;;;;4975176;28;20187;-71
2023/01/17 00:15:38;;;;;;;10.57;2.07;;;27.10;99.90;;;;;;4974663;28;20187;-68
2023/01/17 00:18:06;;;;;;;5.07;1.77;;;28.00;99.90;;;;;;4974729;28;20238;-68
2023/01/17 00:26:19;;;;;;;6.10;1.60;;;29.10;99.90;;;;;;4974843;28;20214;-67
2023/01/17 01:35:53;;;;;;;3.97;1.20;;;31.20;99.90;;;;;;4973928;28;20915;-67
2023/01/17 01:38:23;;;;;;;6.23;1.20;;;30.30;99.90;;;;;;4973625;28;20191;-67
2023/01/17 01:40:53;;;;;;;8.20;1.95;;;29.80;99.90;;;;;;4973191;28;20179;-67
2023/01/17 01:43:44;;;;;;;5.67;1.23;;;29.70;99.90;;;;;;4973798;28;20187;-68
2023/01/17 01:46:17;;;;;;;2.83;0.70;;;29.60;99.90;;;;;;4953573;29;20212;-68
2023/01/17 01:49:04;;;;;;;6.47;1.50;;;29.60;99.90;;;;;;4966385;28;20237;-67
2023/01/17 01:51:45;;;;;;;5.28;1.05;;;29.70;99.90;;;;;;4972922;28;20187;-68
2023/01/17 01:54:45;;;;;;;5.37;1.43;;;29.40;99.90;;;;;;4973282;28;20183;-71
2023/01/17 01:57:17;;;;;;;4.30;1.13;;;29.40;99.90;;;;;;4980385;28;20869;-78
2023/01/17 01:59:55;;;;;;;5.97;1.30;;;29.50;99.90;;;;;;4991846;28;20657;-70
2023/01/17 02:02:22;;;;;;;4.17;1.17;;;29.40;99.90;;;;;;4972936;28;20617;-69
2023/01/17 02:04:51;;;;;;;5.80;1.20;;;29.40;99.90;;;;;;4973048;28;20211;-69
2023/01/17 02:07:47;;;;;;;3.37;0.90;;;29.30;99.90;;;;;;4973351;28;20265;-71
2023/01/17 02:10:14;;;;;;;7.03;1.30;;;29.40;99.90;;;;;;4973105;28;20210;-67
2023/01/17 02:12:43;;;;;;;6.03;1.03;;;29.50;99.90;;;;;;4973399;28;20178;-69
2023/01/17 02:15:11;;;;;;;5.00;0.90;;;29.40;99.90;;;;;;4973137;28;20183;-67
2023/01/17 02:18:09;;;;;;;2.23;0.77;;;29.50;99.90;;;;;;4972784;28;20265;-67
2023/01/17 02:20:51;;;;;;;5.00;1.03;;;29.40;99.90;;;;;;4973284;28;20179;-68
2023/01/17 02:23:36;;;;;;;5.93;1.20;;;29.30;99.90;;;;;;4955903;28;20183;-67
2023/01/17 02:26:30;;;;;;;4.53;1.07;;;29.30;99.90;;;;;;4973091;28;20179;-71
2023/01/17 02:29:27;;;;;;;4.67;1.23;;;29.10;99.90;;;;;;4972684;28;20742;-67
2023/01/17 02:32:10;;;;;;;6.77;1.07;;;29.00;99.90;;;;;;4954411;28;20183;-76
2023/01/17 02:34:53;;;;;;;4.77;1.10;;;29.00;99.90;;;;;;4972062;28;20258;-68
2023/01/17 02:37:26;;;;;;;5.57;1.20;;;29.00;99.90;;;;;;4972901;28;20207;-69
2023/01/17 02:40:20;;;;;;;6.43;1.20;;;29.00;99.90;;;;;;4972369;28;20564;-69
2023/01/17 02:42:54;;;;;;;5.97;1.30;;;28.90;99.90;;;;;;4970028;28;20184;-67
2023/01/17 02:45:22;;;;;;;3.73;0.80;;;28.70;99.90;;;;;;4973725;28;20538;-68
2023/01/17 02:47:49;;;;;;;5.63;1.13;;;28.80;99.90;;;;;;4972395;28;20705;-68
2023/01/17 02:50:22;;;;;;;6.27;1.20;;;29.00;99.90;;;;;;4972596;28;20199;-71
2023/01/17 02:52:56;;;;;;;5.43;1.00;;;29.30;99.90;;;;;;4972806;28;20518;-76
2023/01/17 02:56:00;;;;;;;5.30;1.20;;;29.40;99.90;;;;;;4972470;28;20183;-71
2023/01/17 02:58:48;;;;;;;3.77;1.00;;;29.50;99.90;;;;;;4972440;28;20253;-69
2023/01/17 03:01:34;;;;;;;6.27;1.73;;;29.10;99.90;;;;;;4973120;28;20211;-68
2023/01/17 03:04:19;;;;;;;3.37;1.10;;;29.00;99.90;;;;;;4976164;28;20190;-69
2023/01/17 03:06:53;;;;;;;4.70;0.97;;;29.20;99.90;;;;;;4975374;28;20237;-70
2023/01/17 03:09:22;;;;;;;5.27;1.00;;;29.20;99.90;;;;;;4957969;28;20239;-72
2023/01/17 03:11:49;;;;;;;5.17;1.30;;;29.30;99.90;;;;;;4975833;28;20555;-70
2023/01/17 03:14:16;;;;;;;5.13;1.13;;;30.00;99.90;;;;;;4976921;28;20206;-72
2023/01/17 03:16:44;;;;;;;6.60;1.00;;;30.60;99.90;;;;;;4975434;28;20231;-69
2023/01/17 03:19:13;;;;;;;3.33;0.97;;;31.40;99.90;;;;;;4976812;28;20246;-69
2023/01/17 03:21:41;;;;;;;3.73;0.90;;;32.20;99.90;;;;;;4976871;28;20183;-69
2023/01/17 03:24:08;;;;;;;5.43;1.13;;;32.10;99.90;;;;;;4975644;28;20191;-68
2023/01/17 03:26:36;;;;;;;3.45;0.80;;;31.40;99.90;;;;;;4975942;28;20179;-69
2023/01/17 03:29:03;;;;;;;1.63;0.50;;;31.10;99.90;;;;;;4975664;28;20238;-70
2023/01/17 03:31:31;;;;;;;3.23;0.83;;;30.90;99.90;;;;;;4975222;28;20541;-71
2023/01/17 03:33:58;;;;;;;4.43;0.80;;;30.70;99.90;;;;;;4975763;28;20191;-70
2023/01/17 03:36:25;;;;;;;4.32;0.93;;;30.20;99.90;;;;;;4975645;28;20230;-70
2023/01/17 03:38:53;;;;;;;4.07;1.07;;;29.90;99.90;;;;;;4975069;28;20187;-72
2023/01/17 03:41:20;;;;;;;5.97;1.00;;;29.80;99.90;;;;;;4957810;28;20725;-70
2023/01/17 03:43:48;;;;;;;7.60;1.17;;;29.70;99.90;;;;;;4975441;28;20233;-70
2023/01/17 03:46:21;;;;;;;5.63;0.97;;;29.70;99.90;;;;;;4975187;28;20183;-72
2023/01/17 03:48:49;;;;;;;4.37;0.70;;;30.00;99.90;;;;;;4975341;28;20208;-70
2023/01/17 03:51:17;;;;;;;5.97;1.10;;;30.00;99.90;;;;;;4975725;28;20179;-69
2023/01/17 03:53:48;;;;;;;4.40;0.90;;;29.90;99.90;;;;;;4975241;28;20182;-70
2023/01/17 03:56:16;;;;;;;6.00;0.90;;;29.50;99.90;;;;;;4974979;28;20179;-69
2023/01/17 03:58:44;;;;;;;3.03;0.87;;;29.40;99.90;;;;;;4975136;28;20191;-69
2023/01/17 04:01:11;;;;;;;5.33;0.90;;;30.00;99.90;;;;;;4974719;28;20179;-70
2023/01/17 04:03:39;;;;;;;4.90;0.93;;;30.50;99.90;;;;;;4956041;29;20254;-69
2023/01/17 04:06:07;;;;;;;4.37;0.70;;;30.20;99.90;;;;;;4971499;28;20180;-72
2023/01/17 04:08:34;;;;;;;4.33;0.80;;;30.10;99.90;;;;;;4974605;28;20227;-72
2023/01/17 04:11:02;;;;;;;4.40;0.90;;;30.00;99.90;;;;;;4974934;28;20183;-69
2023/01/17 04:13:29;;;;;;;5.60;1.33;;;30.40;99.90;;;;;;4991050;28;20178;-71
2023/01/17 04:15:56;;;;;;;6.07;0.90;;;31.00;99.90;;;;;;4975580;28;20305;-71
2023/01/17 04:18:24;;;;;;;2.23;0.70;;;31.20;99.90;;;;;;4974668;28;20270;-69
2023/01/17 04:20:55;;;;;;;5.57;1.03;;;31.10;99.90;;;;;;4974648;28;20631;-70
2023/01/17 04:23:22;;;;;;;3.27;0.90;;;30.80;99.90;;;;;;4986031;28;20541;-69
2023/01/17 04:25:49;;;;;;;5.53;1.20;;;30.60;99.90;;;;;;4977288;28;20657;-69
2023/01/17 04:28:17;;;;;;;7.60;1.13;;;30.40;99.90;;;;;;4974584;28;20211;-70
2023/01/17 04:30:44;;;;;;;3.53;1.00;;;30.10;99.90;;;;;;4974455;28;20191;-72
2023/01/17 04:33:12;;;;;;;3.27;0.80;;;30.10;99.90;;;;;;4974442;28;20179;-69
2023/01/17 04:35:39;;;;;;;3.03;1.07;;;29.90;99.90;;;;;;4974627;28;20230;-69
2023/01/17 04:38:06;;;;;;;1.93;0.70;;;30.20;99.90;;;;;;4956383;28;20619;-70
2023/01/17 04:40:34;;;;;;;6.97;1.17;;;30.30;99.90;;;;;;4974537;28;20270;-71
2023/01/17 04:43:01;;;;;;;3.53;0.90;;;29.90;99.90;;;;;;4974129;28;20215;-70
2023/01/17 04:45:29;;;;;;;3.23;0.97;;;30.00;99.90;;;;;;4974095;28;20246;-72
2023/01/17 04:48:01;;;;;;;6.20;1.27;;;30.10;99.90;;;;;;4974172;28;20245;-68
2023/01/17 04:50:28;;;;;;;3.77;0.90;;;30.10;99.90;;;;;;4974383;28;20226;-69
2023/01/17 04:52:56;;;;;;;6.63;1.10;;;30.20;99.90;;;;;;4973938;28;20186;-70
2023/01/17 04:55:25;;;;;;;4.20;0.90;;;30.70;99.90;;;;;;4956698;28;20175;-69
2023/01/17 04:57:53;;;;;;;3.43;0.70;;;30.80;99.90;;;;;;4973998;28;20187;-68
2023/01/17 05:00:21;;;;;;;5.00;0.90;;;31.00;99.90;;;;;;4973712;28;20233;-70
2023/01/17 05:02:49;;;;;;;4.03;0.60;;;30.90;99.90;;;;;;4973743;28;20644;-71
2023/01/17 05:05:16;;;;;;;7.03;0.93;;;31.20;99.90;;;;;;4974091;28;20183;-70
2023/01/17 05:07:44;;;;;;;3.07;0.70;;;31.20;99.90;;;;;;4973449;28;20207;-70
2023/01/17 05:10:11;;;;;;;20.63;3.50;;;30.60;99.90;;;;;;4973913;28;20188;-70
2023/01/17 05:12:39;;;;;;;5.10;1.10;;;30.30;99.90;;;;;;4973863;28;20209;-72
2023/01/17 05:15:06;;;;;;;2.47;0.93;;;30.00;99.90;;;;;;4973040;28;20191;-71
2023/01/17 05:17:34;;;;;;;3.50;0.90;;;29.70;99.90;;;;;;4974823;28;20707;-70
2023/01/17 05:20:01;;;;;;;5.37;0.90;;;30.00;99.90;;;;;;4973214;28;20191;-69
2023/01/17 05:22:29;;;;;;;4.80;1.13;;;30.30;99.90;;;;;;4973451;28;20183;-70
2023/01/17 05:24:56;;;;;;;6.23;1.50;;;30.10;99.90;;;;;;4956200;28;20615;-69
2023/01/17 05:27:24;;;;;;;4.63;0.77;;;30.40;99.90;;;;;;4973324;28;20665;-70
2023/01/17 05:29:51;;;;;;;4.87;0.70;;;30.60;99.90;;;;;;4973181;28;20703;-70
2023/01/17 05:32:19;;;;;;;4.30;0.97;;;30.80;99.90;;;;;;4973551;28;20194;-70
2023/01/17 05:34:46;;;;;;;2.97;0.57;;;30.80;99.90;;;;;;4973729;28;20171;-69
2023/01/17 05:37:13;;;;;;;2.73;0.87;;;31.20;99.90;;;;;;4972936;28;20222;-70
2023/01/17 05:39:41;;;;;;;1.47;0.70;;;30.90;99.90;;;;;;4973183;28;20183;-72
2023/01/17 05:42:08;;;;;;;7.13;1.03;;;30.10;99.90;;;;;;4990001;28;20501;-70
2023/01/17 05:44:37;;;;;;;2.90;0.83;;;29.80;99.90;;;;;;4988638;28;21000;-70
2023/01/17 05:47:04;;;;;;;2.57;0.80;;;30.10;99.90;;;;;;4973311;28;20198;-71
2023/01/17 05:49:32;;;;;;;6.53;1.00;;;30.40;99.90;;;;;;4973415;28;20246;-70
2023/01/17 05:51:59;;;;;;;1.63;0.73;;;30.40;99.90;;;;;;4972415;28;20664;-70
2023/01/17 05:54:26;;;;;;;6.50;1.17;;;30.40;99.90;;;;;;4973353;28;20181;-72
2023/01/17 05:56:54;;;;;;;8.80;1.83;;;30.30;99.90;;;;;;4973053;28;20301;-69
2023/01/17 05:59:21;;;;;;;5.63;1.17;;;30.50;99.90;;;;;;4972894;28;20647;-69
2023/01/17 06:01:49;;;;;;;4.20;1.03;;;30.50;99.90;;;;;;4973302;28;20207;-69
2023/01/17 06:04:16;;;;;;;6.57;1.10;;;30.50;99.90;;;;;;4972840;28;20659;-69
2023/01/17 06:06:43;;;;;;;4.70;1.37;;;30.60;99.90;;;;;;4972715;28;20653;-70
2023/01/17 06:09:11;;;;;;;3.77;0.80;;;30.70;99.90;;;;;;4972975;28;20219;-71
2023/01/17 06:11:38;;;;;;;6.10;1.10;;;30.70;99.90;;;;;;4973109;28;20667;-70
2023/01/17 06:14:06;;;;;;;4.03;1.00;;;30.50;99.90;;;;;;4972533;28;20202;-71
2023/01/17 06:16:35;;;;;;;4.00;0.90;;;30.40;99.90;;;;;;4953435;29;20232;-70
2023/01/17 06:19:02;;;;;;;5.17;1.13;;;30.40;99.90;;;;;;4953593;29;20192;-70
2023/01/17 06:21:30;;;;;;;5.67;1.37;;;30.30;99.90;;;;;;4953338;29;20176;-70
2023/01/17 06:23:57;;;;;;;4.77;0.90;;;30.20;99.90;;;;;;4953785;29;20195;-69
2023/01/17 06:26:24;;;;;;;9.80;1.93;;;29.90;99.90;;;;;;4969303;28;20229;-69
2023/01/17 06:28:52;;;;;;;6.47;1.30;;;29.80;99.90;;;;;;4977257;28;20215;-72
2023/01/17 06:31:19;;;;;;;4.90;1.20;;;29.90;99.90;;;;;;4990261;28;20171;-68
2023/01/17 06:33:46;;;;;;;9.37;1.87;;;30.00;99.90;;;;;;4972498;28;20241;-68
2023/01/17 06:36:14;;;;;;;4.80;1.10;;;30.00;99.90;;;;;;4974912;28;20190;-70
2023/01/17 06:38:41;;;;;;;5.90;1.27;;;30.00;99.90;;;;;;4979391;28;20214;-69
2023/01/17 06:41:08;;;;;;;6.27;0.90;;;30.00;99.90;;;;;;4979203;28;20285;-70
2023/01/17 06:43:36;;;;;;;3.83;1.00;;;29.70;99.90;;;;;;4979104;28;20183;-70
2023/01/17 06:46:03;;;;;;;3.13;1.03;;;29.70;99.90;;;;;;4979018;28;20261;-71
2023/01/17 06:48:31;;;;;;;4.87;1.00;;;29.50;99.90;;;;;;4979302;28;20321;-70
2023/01/17 06:50:58;;;;;;;5.17;0.97;;;29.50;99.90;;;;;;4961376;28;20521;-70
2023/01/17 06:53:26;;;;;;;7.40;1.50;;;29.40;99.90;;;;;;4979035;28;20546;-69
2023/01/17 06:55:59;;;;;;;4.50;0.83;;;29.50;99.90;;;;;;4978894;28;20191;-70
2023/01/17 06:58:26;;;;;;;3.80;1.20;;;29.60;99.90;;;;;;4978905;28;20174;-70
2023/01/17 07:00:54;;;;;;;4.03;0.83;;;29.30;99.90;;;;;;4978712;28;20190;-72
2023/01/17 07:03:24;;;;;;;3.47;0.80;;;29.20;99.90;;;;;;4978796;28;20183;-70
2023/01/17 07:05:52;;;;;;;4.47;0.80;;;29.10;99.90;;;;;;4978513;28;20230;-69
2023/01/17 07:08:20;;;;;;;2.67;0.87;;;29.10;99.90;;;;;;4978848;28;20215;-70
2023/01/17 07:10:48;;;;;;;5.43;1.27;;;29.00;99.90;;;;;;4978954;28;20547;-69
2023/01/17 07:13:15;;;;;;;3.87;1.50;;;29.00;99.90;;;;;;4978554;28;20175;-69
2023/01/17 07:15:43;;;;;;;4.80;1.30;;;28.80;99.90;;;;;;4978591;28;20183;-71
2023/01/17 07:18:10;;;;;;;4.40;1.00;;;28.80;99.90;;;;;;4979020;28;20191;-70
2023/01/17 07:20:38;;;;;;;6.63;1.47;;;28.70;99.90;;;;;;4978237;28;20206;-69
2023/01/17 07:23:05;;;;;;;5.57;1.13;;;28.60;99.90;;;;;;4978865;28;20245;-71
2023/01/17 07:25:33;;;;;;;3.70;0.80;;;28.50;99.90;;;;;;4978841;28;20595;-71
2023/01/17 07:28:00;;;;;;;2.77;1.13;;;28.40;99.90;;;;;;4977910;28;20696;-69
2023/01/17 07:30:28;;;;;;;3.03;1.17;;;28.30;99.90;;;;;;4979194;28;20230;-71
2023/01/17 07:32:55;;;;;;;6.07;0.90;;;28.40;99.90;;;;;;4978486;28;20529;-68
2023/01/17 07:35:27;;;;;;;5.80;1.30;;;28.30;99.90;;;;;;4978366;28;20512;-70
2023/01/17 07:37:55;;;;;;;3.70;1.13;;;28.40;99.90;;;;;;4978945;28;20678;-69
2023/01/17 07:40:23;;;;;;;7.43;1.10;;;28.40;99.90;;;;;;4978902;28;20183;-70
2023/01/17 07:42:50;;;;;;;8.33;1.20;;;28.30;99.90;;;;;;4977707;28;20191;-71
2023/01/17 07:45:19;;;;;;;5.17;1.40;;;28.30;99.90;;;;;;4978827;28;20203;-69
2023/01/17 07:47:48;;;;;;;5.87;1.10;;;28.20;99.90;;;;;;4977309;28;20207;-70
2023/01/17 07:50:16;;;;;;;8.60;1.60;;;28.00;99.90;;;;;;4975213;28;20191;-69
2023/01/17 07:52:48;;;;;;;4.83;1.30;;;27.80;99.90;;;;;;4975435;28;20269;-70
2023/01/17 07:55:15;;;;;;;7.00;1.17;;;27.80;99.90;;;;;;4975726;28;20176;-69
2023/01/17 07:57:42;;;;;;;4.73;0.80;;;27.70;99.90;;;;;;4975081;28;20633;-71
2023/01/17 08:00:10;;;;;;;3.13;0.93;;;27.70;99.90;;;;;;4975538;28;20183;-71
2023/01/17 08:02:38;;;;;;;5.57;1.10;;;27.80;99.90;;;;;;4974682;28;20183;-68
2023/01/17 08:05:05;;;;;;;5.17;1.17;;;27.60;99.90;;;;;;4975241;28;20542;-69
2023/01/17 08:07:33;;;;;;;7.83;1.30;;;27.60;99.90;;;;;;4975343;28;20325;-69
2023/01/17 08:10:00;;;;;;;5.23;1.13;;;27.40;99.90;;;;;;4975499;28;20190;-72
2023/01/17 08:12:28;;;;;;;4.17;0.80;;;27.40;99.90;;;;;;4958236;28;20195;-70
2023/01/17 08:14:55;;;;;;;4.43;1.07;;;27.30;99.90;;;;;;4975117;28;20187;-70
2023/01/17 08:17:23;;;;;;;4.30;1.00;;;27.40;99.90;;;;;;4975274;28;20238;-72
2023/01/17 08:19:51;;;;;;;5.00;0.97;;;27.40;99.90;;;;;;4974695;28;20223;-70
2023/01/17 08:22:20;;;;;;;3.37;0.80;;;27.40;99.90;;;;;;4975162;28;20175;-71
2023/01/17 08:24:47;;;;;;;4.60;1.00;;;27.50;99.90;;;;;;4974709;28;20258;-69
2023/01/17 08:27:15;;;;;;;3.53;0.97;;;27.50;99.90;;;;;;4974625;28;20214;-69
2023/01/17 08:29:45;;;;;;;5.63;1.20;;;27.30;99.90;;;;;;4974931;28;20227;-72
2023/01/17 08:32:13;;;;;;;5.57;0.90;;;27.00;99.90;;;;;;4974949;28;20190;-71
2023/01/17 08:34:41;;;;;;;4.57;0.97;;;26.90;99.90;;;;;;4974205;28;20191;-70
2023/01/17 08:37:09;;;;;;;4.30;1.20;;;26.80;99.90;;;;;;4957693;28;20191;-69
2023/01/17 08:39:37;;;;;;;5.97;1.10;;;26.60;99.90;;;;;;4974348;28;20210;-70
2023/01/17 08:42:05;;;;;;;5.37;1.00;;;26.30;99.90;;;;;;4974384;28;20179;-71
2023/01/17 08:44:32;;;;;;;4.40;0.83;;;26.10;99.90;;;;;;4974672;28;20929;-70
2023/01/17 08:47:00;;;;;;;7.20;0.97;;;26.00;99.90;;;;;;4974810;28;20242;-70
2023/01/17 08:49:27;;;;;;;1.97;0.80;;;25.90;99.90;;;;;;4974369;28;20351;-70
2023/01/17 08:51:55;;;;;;;4.23;1.10;;;25.80;99.90;;;;;;4974832;28;20203;-69
2023/01/17 08:54:22;;;;;;;2.97;0.80;;;25.70;99.90;;;;;;4974546;28;20187;-73
2023/01/17 08:56:51;;;;;;;2.73;0.93;;;25.60;99.90;;;;;;4974218;28;20178;-71
2023/01/17 08:59:19;;;;;;;4.50;1.07;;;25.40;99.90;;;;;;4974030;28;20214;-72
2023/01/17 09:01:46;;;;;;;6.13;1.20;;;25.30;99.90;;;;;;4974352;28;20210;-70
2023/01/17 09:04:14;;;;;;;3.17;1.37;;;25.30;99.90;;;;;;4973993;28;20183;-69
2023/01/17 09:06:47;;;;;;;2.43;0.73;;;25.20;99.90;;;;;;4957133;28;20551;-72
2023/01/17 09:09:17;;;;;;;3.00;1.07;;;25.10;99.90;;;;;;4974348;28;20219;-70
2023/01/17 09:11:44;;;;;;;5.27;1.20;;;25.00;99.90;;;;;;4973953;28;20179;-70
2023/01/17 09:14:12;;;;;;;4.03;0.77;;;24.90;99.90;;;;;;4973814;28;20195;-69
2023/01/17 09:16:40;;;;;;;4.97;0.97;;;24.80;99.90;;;;;;4962717;28;20222;-71
2023/01/17 09:19:09;;;;;;;5.40;1.10;;;24.80;99.90;;;;;;4993205;28;20182;-70
2023/01/17 09:21:36;;;;;;;3.17;0.80;;;24.70;99.90;;;;;;4975911;28;20215;-70
2023/01/17 09:24:03;;;;;;;3.50;0.80;;;24.60;99.90;;;;;;4974740;28;20262;-71
2023/01/17 09:26:31;;;;;;;2.83;1.03;;;24.60;99.90;;;;;;4975035;28;20546;-69
2023/01/17 09:28:58;;;;;;;2.67;0.77;;;24.50;99.90;;;;;;4974923;28;20218;-68
2023/01/17 09:31:26;;;;;;;5.27;1.10;;;24.50;99.90;;;;;;4975001;28;20175;-69
2023/01/17 09:33:56;;;;;;;3.33;0.70;;;24.40;99.90;;;;;;4957209;28;20195;-76
2023/01/17 09:36:30;;;;;;;3.50;0.87;;;24.40;99.90;;;;;;4974925;28;20235;-69
2023/01/17 09:38:58;;;;;;;1.50;0.73;;;24.40;99.90;;;;;;4975673;28;20245;-71
2023/01/17 09:41:29;;;;;;;2.23;1.00;;;24.30;99.90;;;;;;4974749;28;20194;-74
2023/01/17 09:44:02;;;;;;;4.40;1.00;;;24.20;99.90;;;;;;4974797;28;20182;-72
2023/01/17 09:46:40;;;;;;;7.40;1.07;;;24.20;99.90;;;;;;4975514;28;20229;-69
2023/01/17 09:49:18;;;;;;;3.17;1.00;;;24.10;99.90;;;;;;4975525;28;20214;-70
2023/01/17 09:51:46;;;;;;;3.90;0.67;;;24.00;99.90;;;;;;4974748;28;20224;-68
2023/01/17 09:54:25;;;;;;;5.73;1.00;;;23.90;99.90;;;;;;4974956;28;20186;-75
2023/01/17 09:57:22;;;;;;;3.53;1.20;;;23.80;99.90;;;;;;4975002;28;20261;-69
2023/01/17 09:59:49;;;;;;;2.47;0.70;;;23.80;99.90;;;;;;4974929;28;20178;-69
2023/01/17 10:02:22;;;;;;;4.70;1.00;;;23.70;99.90;;;;;;4974664;28;20632;-71
2023/01/17 10:05:33;;;;;;;4.40;1.13;;;23.70;99.90;;;;;;4974537;28;20305;-69
2023/01/17 10:08:06;;;;;;;5.07;1.30;;;23.70;99.90;;;;;;4974611;28;20612;-76
2023/01/17 10:10:47;;;;;;;3.43;0.90;;;23.60;99.90;;;;;;4956463;28;20553;-70
2023/01/17 10:13:20;;;;;;;3.27;1.20;;;23.60;99.90;;;;;;4974833;28;20244;-73
2023/01/17 10:19:10;;;;;;;3.83;0.93;;;23.60;99.90;;;;;;4973871;28;20197;-69
2023/01/17 10:22:09;;;;;;;4.53;1.10;;;23.50;99.90;;;;;;4974388;28;20187;-69
2023/01/17 10:24:59;;;;;;;4.27;1.00;;;23.40;99.90;;;;;;4974574;28;20261;-74
2023/01/17 10:27:31;;;;;;;3.40;0.90;;;23.30;99.90;;;;;;4974715;28;20175;-69
2023/01/17 10:30:00;;;;;;;3.13;0.70;;;23.30;99.90;;;;;;4974407;28;20190;-67
2023/01/17 10:32:32;;;;;;;3.00;0.70;;;23.30;99.90;;;;;;4974322;28;20186;-69
2023/01/17 10:35:14;;;;;;;3.00;0.83;;;23.20;99.90;;;;;;4974675;28;20240;-75
2023/01/17 10:37:44;;;;;;;4.77;1.20;;;23.10;99.90;;;;;;4974704;28;20632;-68
2023/01/17 10:40:16;;;;;;;4.53;1.17;;;23.10;99.90;;;;;;4956690;28;20560;-74
2023/01/17 10:42:48;;;;;;;9.10;1.00;;;23.00;99.90;;;;;;4974784;28;20171;-68
2023/01/17 10:45:28;;;;;;;4.70;0.97;;;22.90;99.90;;;;;;4974210;28;20260;-74
2023/01/17 10:48:49;;;;;;;2.37;0.87;;;23.00;99.90;;;;;;4973949;28;20211;-68
2023/01/17 10:51:42;;;;;;;2.87;1.00;;;22.90;99.90;;;;;;4941699;28;20575;-74
2023/01/17 10:54:21;;;;;;;4.60;1.00;;;22.70;99.90;;;;;;4947704;28;20191;-70
2023/01/17 10:56:49;;;;;;;3.97;1.10;;;22.60;99.90;;;;;;4974195;28;20175;-69
2023/01/17 10:59:25;;;;;;;2.33;0.80;;;22.50;99.90;;;;;;4973996;28;20218;-70
2023/01/17 11:01:53;;;;;;;2.80;0.80;;;22.50;99.90;;;;;;4974212;28;20175;-69
2023/01/17 11:04:35;;;;;;;4.67;0.97;;;22.40;99.90;;;;;;4974046;28;20182;-72
2023/01/17 11:07:27;;;;;;;3.43;1.00;;;22.30;99.90;;;;;;4974578;28;20205;-71
2023/01/17 11:09:56;;;;;;;3.57;1.00;;;22.30;99.90;;;;;;4967317;28;20231;-70
2023/01/17 11:12:31;;;;;;;4.83;1.00;;;22.20;99.90;;;;;;4956750;28;20744;-70
2023/01/17 11:15:02;;;;;;;2.60;0.90;;;22.20;99.90;;;;;;4973956;28;20574;-68
2023/01/17 11:17:31;;;;;;;2.10;1.00;;;22.10;99.90;;;;;;4973904;28;20318;-72
2023/01/17 11:20:11;;;;;;;6.00;0.90;;;22.10;99.90;;;;;;4974212;28;20511;-68
2023/01/17 11:22:39;;;;;;;4.30;1.10;;;22.00;99.90;;;;;;4975673;28;20263;-68
2023/01/17 11:25:18;;;;;;;6.10;1.20;;;22.00;99.90;;;;;;4977748;28;20179;-69
2023/01/17 11:28:00;;;;;;;3.33;1.00;;;21.90;99.90;;;;;;4977523;28;20233;-68
2023/01/17 11:30:30;;;;;;;2.70;0.70;;;21.90;99.90;;;;;;4977953;28;20183;-70
2023/01/17 11:32:57;;;;;;;3.53;0.70;;;21.80;99.90;;;;;;4977383;28;20611;-70
2023/01/17 11:35:43;;;;;;;1.20;0.67;;;21.70;99.90;;;;;;4977451;28;20186;-70
2023/01/17 11:38:16;;;;;;;5.10;0.83;;;21.70;99.90;;;;;;4977372;28;20173;-75
2023/01/17 11:40:45;;;;;;;4.57;1.00;;;21.70;99.90;;;;;;4959994;28;20206;-71
2023/01/17 11:43:26;;;;;;;3.50;1.20;;;21.60;99.90;;;;;;4977188;28;20585;-68
2023/01/17 11:46:10;;;;;;;2.93;0.77;;;21.50;99.90;;;;;;4977140;28;20175;-73
2023/01/17 11:48:39;;;;;;;2.30;0.60;;;21.50;99.90;;;;;;4977594;28;20213;-70
2023/01/17 11:51:38;;;;;;;2.40;0.90;;;21.40;99.90;;;;;;4976618;28;20204;-70
2023/01/17 11:54:38;;;;;;;3.57;0.87;;;21.30;99.90;;;;;;4976898;28;20772;-70
2023/01/17 11:57:16;;;;;;;3.40;1.07;;;21.30;99.90;;;;;;4976694;28;20175;-68
2023/01/17 11:59:46;;;;;;;3.27;1.13;;;21.30;99.90;;;;;;4976720;28;20681;-69
2023/01/17 12:02:31;;;;;;;3.13;1.37;;;21.30;99.90;;;;;;4976372;28;20186;-73
2023/01/17 12:05:32;;;;;;;4.03;0.90;;;21.20;99.90;;;;;;4976499;28;20290;-68
2023/01/17 12:08:06;;;;;;;5.57;1.33;;;21.20;99.90;;;;;;4976585;28;20203;-69
2023/01/17 12:10:53;;;;;;;5.10;1.23;;;21.20;99.90;;;;;;4976649;28;20187;-70
2023/01/17 12:16:40;;;;;;;5.50;1.10;;;21.10;99.90;;;;;;4973503;28;20243;-69
2023/01/17 12:19:44;;;;;;;3.23;1.10;;;21.00;99.90;;;;;;4975969;28;20191;-68
2023/01/17 12:22:32;;;;;;;4.53;1.00;;;21.00;99.90;;;;;;4976102;28;20179;-69
2023/01/17 12:25:02;;;;;;;3.87;1.50;;;21.00;99.90;;;;;;4974666;28;20242;-72
2023/01/17 12:28:10;;;;;;;3.07;1.13;;;21.00;99.90;;;;;;4957559;28;20544;-71
2023/01/17 12:30:45;;;;;;;3.03;1.10;;;21.00;99.90;;;;;;4961945;28;20242;-70
2023/01/17 12:33:28;;;;;;;2.90;0.87;;;20.90;99.90;;;;;;4973999;28;20175;-69
2023/01/17 12:36:07;;;;;;;4.93;1.00;;;20.90;99.90;;;;;;4975446;28;20237;-69
2023/01/17 12:38:39;;;;;;;5.73;1.00;;;20.80;99.90;;;;;;4975206;28;20557;-73
2023/01/17 12:41:33;;;;;;;5.43;1.20;;;20.80;99.90;;;;;;4973884;28;20185;-69
2023/01/17 12:44:10;;;;;;;2.37;1.23;;;20.80;99.90;;;;;;4974628;28;20198;-73
2023/01/17 12:46:53;;;;;;;3.23;1.13;;;20.70;99.90;;;;;;4958009;28;20223;-69
2023/01/17 12:49:42;;;;;;;2.80;1.20;;;20.70;99.90;;;;;;4975585;28;20217;-71
2023/01/17 12:52:13;;;;;;;2.20;1.10;;;20.60;99.90;;;;;;4975144;28;20320;-71
2023/01/17 12:54:47;;;;;;;3.77;1.70;;;20.60;99.90;;;;;;4975114;28;20270;-74
2023/01/17 12:57:17;;;;;;;5.20;1.83;;;20.50;99.90;;;;;;4974831;28;20177;-72
2023/01/17 13:00:08;;;;;;;3.10;1.40;;;20.50;99.90;;;;;;4974934;28;20193;-69
2023/01/17 13:02:51;;;;;;;2.23;1.20;;;20.50;99.90;;;;;;4973959;28;20620;-68
2023/01/17 13:05:37;;;;;;;2.40;1.07;;;20.50;99.90;;;;;;4974147;28;20206;-69
2023/01/17 13:08:41;;;;;;;2.60;1.17;;;20.40;99.90;;;;;;4974427;28;20277;-69
2023/01/17 13:11:11;;;;;;;4.20;1.50;;;20.40;99.90;;;;;;4952122;28;20191;-69
2023/01/17 13:13:42;;;;;;;2.53;0.97;;;20.40;99.90;;;;;;4974375;28;20650;-69
2023/01/17 13:16:25;;;;;;;3.30;1.27;;;20.30;99.90;;;;;;4973647;28;20225;-69
2023/01/17 13:18:53;;;;;;;5.23;1.43;;;20.30;99.90;;;;;;4974351;28;20649;-70
2023/01/17 13:21:31;;;;;;;5.10;1.27;;;20.30;99.90;;;;;;4974415;28;20290;-68
2023/01/17 13:24:00;;;;;;;3.30;1.23;;;20.30;99.90;;;;;;4973832;28;20183;-71
2023/01/17 13:26:55;;;;;;;5.03;1.13;;;20.30;99.90;;;;;;4974988;28;20583;-72
2023/01/17 13:29:34;;;;;;;4.63;1.23;;;20.30;99.90;;;;;;4957076;28;20258;-69
2023/01/17 13:32:31;;;;;;;5.50;1.60;;;20.20;99.90;;;;;;4974516;28;20732;-69
2023/01/17 13:35:22;;;;;;;2.53;1.20;;;20.20;99.90;;;;;;4974710;28;20179;-69
2023/01/17 13:37:55;;;;;;;2.97;1.37;;;20.20;99.90;;;;;;4973747;28;20250;-69
2023/01/17 13:40:49;;;;;;;1.17;0.90;;;20.10;99.90;;;;;;4974482;28;20178;-69
2023/01/17 13:43:27;;;;;;;3.13;1.20;;;20.10;99.90;;;;;;4974735;28;20203;-70
2023/01/17 13:46:02;;;;;;;2.80;1.00;;;20.00;99.90;;;;;;4975033;28;20260;-69
2023/01/17 13:48:36;;;;;;;2.80;1.13;;;20.00;99.90;;;;;;4974788;28;20242;-68
2023/01/17 13:51:10;;;;;;;4.63;1.00;;;20.00;99.90;;;;;;4975027;28;20182;-70
2023/01/17 13:53:41;;;;;;;3.67;1.20;;;20.00;99.90;;;;;;4974848;28;20176;-68
2023/01/17 13:56:25;;;;;;;2.87;1.20;;;19.90;99.90;;;;;;4975136;28;20183;-68
2023/01/17 13:59:01;;;;;;;6.63;2.00;;;19.90;99.90;;;;;;4975082;28;20656;-72
2023/01/17 14:01:33;;;;;;;2.83;1.00;;;19.90;99.90;;;;;;4957115;28;20194;-69
2023/01/17 14:04:09;;;;;;;3.33;1.23;;;19.80;99.90;;;;;;4957201;28;20179;-70
2023/01/17 14:06:43;;;;;;;2.40;1.37;;;19.90;99.90;;;;;;4974942;28;20175;-68
2023/01/17 14:09:28;;;;;;;2.87;1.40;;;19.80;99.90;;;;;;4974815;28;20217;-69
2023/01/17 14:11:55;;;;;;;1.87;1.13;;;19.80;99.90;;;;;;4974309;28;20235;-72
2023/01/17 14:14:44;;;;;;;2.07;1.40;;;19.80;99.90;;;;;;4974652;28;20190;-69
2023/01/17 14:17:29;;;;;;;3.03;1.40;;;19.70;99.90;;;;;;4956731;28;20690;-71
2023/01/17 14:20:16;;;;;;;6.60;1.53;;;19.70;99.90;;;;;;4975201;28;20639;-69
2023/01/17 14:23:12;;;;;;;3.53;1.50;;;19.70;99.90;;;;;;4973767;28;20183;-75
2023/01/17 14:25:40;;;;;;;8.07;1.73;;;19.60;99.90;;;;;;4974596;28;20169;-71
2023/01/17 14:28:23;;;;;;;4.87;1.50;;;19.60;99.90;;;;;;4957257;28;20232;-68
2023/01/17 14:30:54;;;;;;;3.00;1.10;;;19.50;99.90;;;;;;4974083;28;20691;-69
2023/01/17 14:33:35;;;;;;;4.83;1.50;;;19.50;99.90;;;;;;4974398;28;20572;-70
2023/01/17 14:36:13;;;;;;;3.03;1.73;;;19.50;99.90;;;;;;4973506;28;20277;-72
2023/01/17 14:38:45;;;;;;;6.27;1.53;;;19.40;99.90;;;;;;4971934;28;20644;-73
2023/01/17 14:44:34;;;;;;;6.10;1.80;;;19.40;99.90;;;;;;4973487;28;20269;-69